Pagina principale
METAR-TAF:

METAR-TAF

Aeroporti :

Wiener Neustadt, Austria

latitudine: 47-50-36N, longitudine: 016-15-29E, altezza: 272 m

Osservazione

Il bollettino è stato emesso 39 minuti fa, alle 13:00 UTC
Vento 8 kt da nord/nord-ovest
Temperature
Pressione
Visibilità: 9000 m
pioggia debole

METAR: LOAN 191300Z 33008KT 9000 -RA FEW006ST SCT020SC BKN030SC

Ora: 15:39 (13:39 UTC)

Previsione

Il bollettino è stato emesso 2 ore e 14 minuti fa, alle 11:25 UTC
Previsione valida dal 19 alle 12 UTC al 19 alle 21 UTC
Vento 6 kt da nord/nord-ovest
Visibilità: 8000 m
Nubi sparse ad un'altezza di 2000 ft
Nuvoloso ad un'altezza di 3000 ft
pioggia debole
Temporaneamente
dal 19 alle 12 UTC al 19 alle 21 UTC
Vento 15 kt da nord/nord-ovest
Visibilità: 4000 m
Poco nuvoloso ad un'altezza di 600 ft
Nuvoloso ad un'altezza di 1000 ft
pioggia

TAF: LOAN 191125Z 1912/1921 34006KT 8000 -RA SCT020 BKN030 TEMPO 1912/1921 33015KT 4000 RA FEW006 BKN010

Osservazioni e previsioni meteorologiche di più di 4000 aeroporti (messaggi METAR e TAF).

Le stazioni disponibili sono rappresentate dai dischi gialli e rossi sulla carta.

Puntare il mouse per vedere il nome della stazione.

Clicca sopra per visualizzare le osservazioni e previsioni meteorologiche.

Per cambiare la mappa : fare clic sui pulsanti verdi con una croce nera per ingrandire, il pulsante verde con un trattino per diminuire, o sulla freccia verde per le mappe adiacenti.


METAR-TAF: